Time;durP1;ratioP1;P1;durP2;ratioP2;P2;SDS_P1;SDS_P2;PMS_P1;PMS_P2;Temp;Humidity;BMP_temperature;BMP_pressure;BME280_temperature;BME280_humidity;BME280_pressure;Samples;Min_cycle;Max_cycle;Signal;HPM_P1;HPM_P2
2023/09/24 00:01:44;;;;;;;14.25;9.65;;;11.80;99.90;;;;;;5053399;28;20385;-74
2023/09/24 00:04:11;;;;;;;19.03;11.10;;;11.70;99.90;;;;;;5053784;28;20389;-73
2023/09/24 00:06:36;;;;;;;15.48;10.40;;;11.50;99.90;;;;;;5053258;28;20393;-73
2023/09/24 00:09:03;;;;;;;16.97;10.87;;;11.40;99.90;;;;;;5053770;28;20774;-75
2023/09/24 00:11:29;;;;;;;23.35;11.10;;;11.40;99.90;;;;;;5053960;28;20389;-74
2023/09/24 00:13:55;;;;;;;17.70;12.20;;;11.30;99.90;;;;;;5053958;28;20392;-72
2023/09/24 00:16:20;;;;;;;16.23;11.40;;;11.30;99.90;;;;;;5053631;28;20778;-74
2023/09/24 00:18:46;;;;;;;19.90;12.40;;;11.30;99.90;;;;;;5055277;28;20382;-75
2023/09/24 00:21:12;;;;;;;20.90;11.53;;;11.20;99.90;;;;;;5053966;28;20388;-74
2023/09/24 00:23:39;;;;;;;19.30;11.60;;;11.20;99.90;;;;;;5055388;28;20747;-74
2023/09/24 00:26:05;;;;;;;21.88;13.32;;;11.20;99.90;;;;;;5061498;28;20423;-74
2023/09/24 00:28:31;;;;;;;22.00;13.40;;;11.20;99.90;;;;;;5059414;28;20752;-74
2023/09/24 00:30:58;;;;;;;23.48;13.90;;;11.20;99.90;;;;;;5053921;28;20428;-74
2023/09/24 00:33:24;;;;;;;20.35;12.68;;;11.20;99.90;;;;;;5052336;28;20464;-74
2023/09/24 00:35:53;;;;;;;25.95;14.05;;;11.10;99.90;;;;;;5052632;28;20496;-74
2023/09/24 00:38:19;;;;;;;15.68;11.02;;;11.10;99.90;;;;;;5051665;28;20492;-72
2023/09/24 00:40:44;;;;;;;25.55;12.05;;;11.10;99.90;;;;;;5051711;28;20382;-74
2023/09/24 00:43:32;;;;;;;16.67;10.93;;;11.00;99.90;;;;;;5033433;28;20435;-72
2023/09/24 00:45:59;;;;;;;20.20;11.75;;;11.00;99.90;;;;;;5054373;28;20412;-73
2023/09/24 00:48:27;;;;;;;18.17;11.77;;;11.00;99.90;;;;;;5038113;28;20468;-73
2023/09/24 00:50:57;;;;;;;18.83;11.43;;;11.00;99.90;;;;;;5060799;28;20385;-73
2023/09/24 00:53:24;;;;;;;22.63;12.50;;;11.00;99.90;;;;;;5063818;28;20392;-73
2023/09/24 00:55:50;;;;;;;14.70;11.38;;;11.00;99.90;;;;;;5065225;28;20416;-75
2023/09/24 00:58:17;;;;;;;20.70;11.00;;;11.00;99.90;;;;;;5063758;28;20381;-74
2023/09/24 01:00:46;;;;;;;20.08;11.63;;;10.90;99.90;;;;;;5057287;28;20478;-74
2023/09/24 01:03:12;;;;;;;21.10;12.98;;;10.90;99.90;;;;;;5052386;28;20480;-74
2023/09/24 01:05:38;;;;;;;19.55;11.73;;;11.00;99.90;;;;;;5051658;28;20923;-73
2023/09/24 01:08:05;;;;;;;21.08;12.50;;;10.90;99.90;;;;;;5052235;28;20417;-73
2023/09/24 01:10:30;;;;;;;19.92;12.40;;;10.90;99.90;;;;;;5051290;28;20389;-74
2023/09/24 01:13:01;;;;;;;21.33;12.00;;;10.90;99.90;;;;;;5050837;28;20777;-73
2023/09/24 01:15:27;;;;;;;21.25;11.95;;;10.90;99.90;;;;;;5050904;28;20385;-73
2023/09/24 01:17:53;;;;;;;28.42;12.43;;;10.90;99.90;;;;;;5050855;28;20397;-74
2023/09/24 01:20:22;;;;;;;19.08;11.60;;;10.90;99.90;;;;;;5032975;28;20407;-73
2023/09/24 01:22:50;;;;;;;21.08;11.73;;;10.90;99.90;;;;;;5050587;28;20389;-73
2023/09/24 01:25:18;;;;;;;22.17;12.97;;;10.90;99.90;;;;;;5051321;28;20542;-74
2023/09/24 01:27:44;;;;;;;20.20;10.95;;;11.00;99.90;;;;;;5050890;28;20889;-73
2023/09/24 01:30:11;;;;;;;19.52;12.70;;;10.90;99.90;;;;;;5050737;28;20388;-74
2023/09/24 01:32:36;;;;;;;19.67;11.30;;;10.90;99.90;;;;;;5050482;28;20434;-74
2023/09/24 01:35:03;;;;;;;22.10;12.60;;;10.90;99.90;;;;;;5033067;28;20866;-75
2023/09/24 01:37:29;;;;;;;19.73;11.95;;;10.90;99.90;;;;;;5050701;28;20420;-74
2023/09/24 01:39:55;;;;;;;18.93;12.50;;;10.80;99.90;;;;;;5051014;28;20385;-73
2023/09/24 01:42:20;;;;;;;18.33;11.17;;;10.80;99.90;;;;;;5032637;28;21122;-73
2023/09/24 01:44:47;;;;;;;19.90;11.13;;;10.80;99.90;;;;;;5050859;28;20438;-73
2023/09/24 01:47:13;;;;;;;25.17;12.40;;;10.70;99.90;;;;;;5032762;28;20468;-71
2023/09/24 01:49:39;;;;;;;20.30;11.85;;;10.70;99.90;;;;;;5032338;28;20473;-72
2023/09/24 01:52:05;;;;;;;19.30;10.98;;;10.70;99.90;;;;;;5032356;28;20389;-74
2023/09/24 01:54:31;;;;;;;20.63;11.55;;;10.80;99.90;;;;;;5054588;28;20394;-73
2023/09/24 01:56:57;;;;;;;21.57;11.47;;;10.80;99.90;;;;;;5054476;28;20963;-74
2023/09/24 01:59:23;;;;;;;17.15;11.38;;;10.70;99.90;;;;;;5055035;28;20874;-74
2023/09/24 02:01:51;;;;;;;20.00;10.20;;;10.70;99.90;;;;;;5054452;28;20377;-72
2023/09/24 02:04:16;;;;;;;19.65;11.30;;;10.70;99.90;;;;;;5054538;28;20392;-73
2023/09/24 02:06:42;;;;;;;17.37;12.07;;;10.80;99.90;;;;;;5036559;28;20385;-72
2023/09/24 02:09:08;;;;;;;19.70;11.80;;;10.80;99.90;;;;;;5054672;28;20454;-75
2023/09/24 02:11:33;;;;;;;19.60;10.98;;;10.70;99.90;;;;;;5054117;28;20473;-75
2023/09/24 02:13:59;;;;;;;17.45;10.77;;;10.70;99.90;;;;;;5054425;28;20385;-72
2023/09/24 02:16:24;;;;;;;21.40;11.27;;;10.70;99.90;;;;;;5054157;28;20432;-74
2023/09/24 02:18:50;;;;;;;19.02;10.65;;;10.70;99.90;;;;;;5054364;28;20885;-73
2023/09/24 02:21:17;;;;;;;20.77;11.30;;;10.70;99.90;;;;;;5053959;28;20454;-74
2023/09/24 02:23:43;;;;;;;22.13;10.90;;;10.80;99.90;;;;;;5054188;28;20389;-73
2023/09/24 02:26:09;;;;;;;17.58;10.50;;;10.80;99.90;;;;;;5053941;28;20401;-73
2023/09/24 02:28:39;;;;;;;19.10;11.00;;;10.70;99.90;;;;;;5054408;28;20396;-73
2023/09/24 02:31:06;;;;;;;17.88;10.68;;;10.70;99.90;;;;;;5054686;28;20898;-74
2023/09/24 02:33:31;;;;;;;21.20;10.43;;;10.70;99.90;;;;;;5060036;28;20503;-74
2023/09/24 02:35:57;;;;;;;20.17;11.73;;;10.60;99.90;;;;;;5060192;28;20910;-73
2023/09/24 02:38:24;;;;;;;23.07;11.43;;;10.60;99.90;;;;;;5054398;28;20385;-73
2023/09/24 02:40:50;;;;;;;18.63;10.52;;;10.60;99.90;;;;;;5054589;28;20381;-73
2023/09/24 02:43:16;;;;;;;19.85;11.38;;;10.70;99.90;;;;;;5053871;28;20390;-74
2023/09/24 02:45:42;;;;;;;18.30;10.98;;;10.70;99.90;;;;;;5053577;28;20944;-73
2023/09/24 02:48:08;;;;;;;18.65;10.30;;;10.70;99.90;;;;;;5053685;28;20389;-72
2023/09/24 02:50:33;;;;;;;21.50;11.60;;;10.70;99.90;;;;;;5036477;28;20385;-72
2023/09/24 02:53:02;;;;;;;21.90;11.40;;;10.70;99.90;;;;;;5054011;28;20397;-73
2023/09/24 02:55:29;;;;;;;17.98;10.07;;;10.60;99.90;;;;;;5053923;28;20413;-72
2023/09/24 02:57:55;;;;;;;23.83;11.03;;;10.60;99.90;;;;;;5053982;28;20482;-74
2023/09/24 03:00:26;;;;;;;20.43;11.00;;;10.60;99.90;;;;;;5057841;28;20389;-75
2023/09/24 03:03:00;;;;;;;20.33;11.30;;;10.60;99.90;;;;;;5059934;28;20385;-74
2023/09/24 03:05:28;;;;;;;20.90;12.60;;;10.60;99.90;;;;;;5059890;28;20381;-74
2023/09/24 03:07:55;;;;;;;18.00;11.10;;;10.60;99.90;;;;;;5058989;28;20425;-74
2023/09/24 03:10:21;;;;;;;22.15;11.60;;;10.60;99.90;;;;;;5058346;28;20850;-72
2023/09/24 03:12:48;;;;;;;16.85;11.23;;;10.60;99.90;;;;;;5057536;28;20413;-74
2023/09/24 03:15:14;;;;;;;17.65;11.32;;;10.60;99.90;;;;;;5053712;28;20429;-75
2023/09/24 03:17:42;;;;;;;18.15;10.95;;;10.60;99.90;;;;;;5066962;22;20476;-74
2023/09/24 03:20:15;;;;;;;18.40;11.17;;;10.60;99.90;;;;;;5052799;28;20569;-74
2023/09/24 03:22:52;;;;;;;17.88;11.70;;;10.60;99.90;;;;;;5053298;28;20938;-74
2023/09/24 03:25:19;;;;;;;20.50;12.70;;;10.50;99.90;;;;;;5051675;28;20400;-73
2023/09/24 03:27:46;;;;;;;17.25;11.90;;;10.50;99.90;;;;;;5052953;28;20381;-73
2023/09/24 03:30:17;;;;;;;18.70;11.70;;;10.60;99.90;;;;;;5052896;28;20408;-73
2023/09/24 03:32:44;;;;;;;18.67;11.75;;;10.50;99.90;;;;;;5052775;28;20377;-75
2023/09/24 03:35:10;;;;;;;21.92;11.88;;;10.60;99.90;;;;;;5052742;28;20451;-74
2023/09/24 03:37:43;;;;;;;16.87;11.80;;;10.50;99.90;;;;;;5052536;28;20826;-74
2023/09/24 03:40:11;;;;;;;20.27;11.10;;;10.50;99.90;;;;;;5053117;28;20577;-73
2023/09/24 03:42:38;;;;;;;19.75;12.60;;;10.50;99.90;;;;;;5051610;28;20401;-74
2023/09/24 03:45:08;;;;;;;24.65;11.32;;;10.50;99.90;;;;;;5052765;28;20936;-74
2023/09/24 03:47:34;;;;;;;19.67;11.70;;;10.40;99.90;;;;;;5052839;28;20472;-74
2023/09/24 03:49:59;;;;;;;20.30;11.70;;;10.50;99.90;;;;;;5052704;28;20409;-74
2023/09/24 03:52:26;;;;;;;21.80;11.23;;;10.40;99.90;;;;;;5052643;28;20395;-74
2023/09/24 03:54:52;;;;;;;15.70;11.07;;;10.40;99.90;;;;;;5052735;28;20392;-74
2023/09/24 03:57:17;;;;;;;22.70;11.60;;;10.40;99.90;;;;;;5051213;28;20401;-75
2023/09/24 03:59:43;;;;;;;20.13;11.07;;;10.40;99.90;;;;;;5052889;28;20377;-73
2023/09/24 04:02:09;;;;;;;19.17;11.00;;;10.30;99.90;;;;;;5052706;28;20760;-73
2023/09/24 04:04:36;;;;;;;17.25;10.48;;;10.30;99.90;;;;;;5052669;28;20377;-74
2023/09/24 04:07:02;;;;;;;17.33;10.45;;;10.30;99.90;;;;;;5052719;28;20385;-74
2023/09/24 04:09:32;;;;;;;20.40;10.73;;;10.30;99.90;;;;;;5052757;28;20403;-73
2023/09/24 04:12:00;;;;;;;15.93;10.50;;;10.30;99.90;;;;;;5052412;28;20390;-74
2023/09/24 04:14:25;;;;;;;15.20;10.00;;;10.30;99.90;;;;;;5052678;28;21029;-74
2023/09/24 04:16:51;;;;;;;15.18;11.13;;;10.20;99.90;;;;;;5051158;28;20414;-72
2023/09/24 04:19:17;;;;;;;15.52;10.43;;;10.20;99.90;;;;;;5051917;28;20393;-74
2023/09/24 04:21:45;;;;;;;19.85;10.85;;;10.20;99.90;;;;;;5051604;28;20413;-74
2023/09/24 04:24:11;;;;;;;15.25;10.60;;;10.10;99.90;;;;;;5051881;28;20918;-73
2023/09/24 04:26:37;;;;;;;15.23;10.25;;;10.10;99.90;;;;;;5050274;28;20393;-74
2023/09/24 04:29:03;;;;;;;21.70;10.60;;;10.10;99.90;;;;;;5051570;28;20389;-72
2023/09/24 04:31:28;;;;;;;15.63;9.85;;;10.20;99.90;;;;;;5051687;28;20439;-74
2023/09/24 04:33:54;;;;;;;14.20;9.23;;;10.20;99.90;;;;;;5053906;28;20385;-74
2023/09/24 04:36:20;;;;;;;16.20;10.18;;;10.20;99.90;;;;;;5052747;28;20424;-74
2023/09/24 04:38:47;;;;;;;14.53;9.80;;;10.10;99.90;;;;;;5051550;28;20377;-74
2023/09/24 04:41:15;;;;;;;16.45;10.35;;;10.00;99.90;;;;;;5051436;28;20408;-74
2023/09/24 04:43:41;;;;;;;15.25;9.80;;;10.00;99.90;;;;;;5051808;28;20381;-74
2023/09/24 04:46:07;;;;;;;16.42;9.50;;;10.00;99.90;;;;;;5051916;28;20385;-74
2023/09/24 04:48:33;;;;;;;18.23;10.40;;;10.10;99.90;;;;;;5052933;28;20404;-74
2023/09/24 04:50:59;;;;;;;21.13;10.43;;;10.00;99.90;;;;;;5052312;28;20393;-74
2023/09/24 04:53:25;;;;;;;16.38;8.98;;;10.00;99.90;;;;;;5052204;28;20401;-75
2023/09/24 04:55:51;;;;;;;15.23;9.20;;;10.00;99.90;;;;;;5053381;28;20534;-75
2023/09/24 04:58:16;;;;;;;14.10;9.30;;;10.00;99.90;;;;;;5069313;28;20373;-74
2023/09/24 05:00:42;;;;;;;15.67;9.53;;;10.00;99.90;;;;;;5069329;28;20408;-75
2023/09/24 05:03:07;;;;;;;13.67;9.53;;;10.00;99.90;;;;;;5060641;28;20447;-73
2023/09/24 05:05:33;;;;;;;15.95;10.07;;;10.00;99.90;;;;;;5058397;28;20790;-74
2023/09/24 05:08:02;;;;;;;13.50;8.75;;;9.90;99.90;;;;;;5061672;28;20385;-74
2023/09/24 05:10:27;;;;;;;16.80;8.60;;;9.90;99.90;;;;;;5052229;28;20392;-73
2023/09/24 05:12:53;;;;;;;16.35;9.40;;;9.90;99.90;;;;;;5050826;28;20381;-73
2023/09/24 05:15:19;;;;;;;17.08;8.95;;;9.90;99.90;;;;;;5051138;28;20489;-74
2023/09/24 05:17:44;;;;;;;15.02;9.20;;;9.90;99.90;;;;;;5051177;28;20446;-74
2023/09/24 05:20:10;;;;;;;14.15;9.10;;;9.90;99.90;;;;;;5051111;28;20378;-73
2023/09/24 05:22:36;;;;;;;14.13;7.97;;;9.90;99.90;;;;;;5051036;28;20416;-73
2023/09/24 05:25:02;;;;;;;13.85;8.82;;;10.00;99.90;;;;;;5051365;28;20853;-73
2023/09/24 05:27:29;;;;;;;18.27;8.88;;;10.00;99.90;;;;;;5051131;28;20457;-74
2023/09/24 05:29:55;;;;;;;17.42;9.70;;;10.00;99.90;;;;;;5051175;28;20413;-75
2023/09/24 05:32:20;;;;;;;14.57;8.40;;;9.90;99.90;;;;;;5051109;28;20786;-74
2023/09/24 05:34:52;;;;;;;15.10;9.50;;;10.00;99.90;;;;;;5050968;28;20390;-74
2023/09/24 05:37:17;;;;;;;16.30;9.17;;;10.00;99.90;;;;;;5050990;28;20977;-74
2023/09/24 05:39:43;;;;;;;14.00;8.30;;;9.90;99.90;;;;;;5050808;28;20739;-74
2023/09/24 05:42:09;;;;;;;12.63;8.07;;;9.90;99.90;;;;;;5050850;28;20390;-73
2023/09/24 05:44:34;;;;;;;12.93;8.73;;;10.00;99.90;;;;;;5050726;28;20862;-74
2023/09/24 05:47:00;;;;;;;16.10;8.23;;;10.00;99.90;;;;;;5050945;28;20794;-73
2023/09/24 05:49:26;;;;;;;12.50;7.80;;;10.10;99.90;;;;;;5050960;28;20402;-73
2023/09/24 05:51:52;;;;;;;12.50;8.40;;;10.20;99.90;;;;;;5049137;28;20388;-73
2023/09/24 05:54:17;;;;;;;12.30;7.60;;;10.10;99.90;;;;;;5050905;28;20414;-74
2023/09/24 05:56:46;;;;;;;13.77;8.20;;;10.20;99.90;;;;;;5051311;28;20406;-78
2023/09/24 05:59:11;;;;;;;12.48;7.65;;;10.20;99.90;;;;;;5050515;28;20389;-73
2023/09/24 06:01:37;;;;;;;11.68;7.28;;;10.20;99.90;;;;;;5050003;28;20388;-72
2023/09/24 06:04:02;;;;;;;14.52;8.55;;;10.20;99.90;;;;;;5050158;28;20959;-76
2023/09/24 06:06:28;;;;;;;13.13;7.40;;;10.20;99.90;;;;;;5050041;28;20943;-72
2023/09/24 06:08:54;;;;;;;14.15;7.05;;;10.30;99.90;;;;;;5050019;28;20393;-72
2023/09/24 06:11:20;;;;;;;12.25;6.88;;;10.40;99.90;;;;;;5051035;28;20450;-74
2023/09/24 06:13:46;;;;;;;9.50;6.80;;;10.50;99.90;;;;;;5051882;28;20417;-72
2023/09/24 06:16:11;;;;;;;11.93;7.05;;;10.50;99.90;;;;;;5050331;28;20409;-75
2023/09/24 06:18:37;;;;;;;10.70;7.33;;;10.60;99.90;;;;;;5050835;28;20534;-73
2023/09/24 06:21:04;;;;;;;14.23;6.63;;;10.60;99.90;;;;;;5048844;28;20377;-74
2023/09/24 06:23:30;;;;;;;10.35;6.35;;;10.70;99.90;;;;;;5050389;28;20397;-73
2023/09/24 06:25:57;;;;;;;12.03;6.13;;;10.80;99.90;;;;;;5050124;28;20428;-74
2023/09/24 06:28:23;;;;;;;13.25;6.47;;;10.80;99.90;;;;;;5050351;28;20397;-73
2023/09/24 06:31:01;;;;;;;10.82;6.15;;;10.90;99.90;;;;;;5050418;28;20483;-74
2023/09/24 06:33:27;;;;;;;10.40;6.50;;;10.90;99.90;;;;;;5048685;28;20838;-74
2023/09/24 06:35:53;;;;;;;16.50;7.05;;;10.90;99.90;;;;;;5050024;28;20786;-74
2023/09/24 06:38:18;;;;;;;11.00;6.35;;;10.90;99.90;;;;;;5050662;28;20388;-73
2023/09/24 06:40:44;;;;;;;10.65;6.20;;;11.20;99.90;;;;;;5053252;28;20496;-72
2023/09/24 06:43:09;;;;;;;8.82;5.60;;;11.20;99.90;;;;;;5053957;28;20406;-75
2023/09/24 06:45:35;;;;;;;11.57;6.47;;;11.30;99.90;;;;;;5053781;28;20377;-74
2023/09/24 06:48:01;;;;;;;10.33;5.60;;;11.30;99.90;;;;;;5052915;28;20398;-72
2023/09/24 06:50:27;;;;;;;11.05;6.05;;;11.50;99.90;;;;;;5054195;28;21013;-73
2023/09/24 06:52:52;;;;;;;8.80;5.70;;;11.50;96.50;;;;;;5053423;28;20731;-72
2023/09/24 06:55:18;;;;;;;12.33;5.97;;;11.60;96.20;;;;;;5053497;28;20386;-73
2023/09/24 06:57:43;;;;;;;9.63;5.47;;;11.60;95.20;;;;;;5053496;28;20402;-74
2023/09/24 07:00:10;;;;;;;12.23;6.30;;;11.60;96.30;;;;;;5053022;28;20425;-72
2023/09/24 07:02:37;;;;;;;9.82;5.45;;;11.70;94.00;;;;;;5052232;28;20397;-71
2023/09/24 07:05:04;;;;;;;10.38;6.40;;;11.90;94.40;;;;;;5049990;28;20413;-72
2023/09/24 07:07:30;;;;;;;14.88;7.18;;;11.90;89.80;;;;;;5032848;28;20395;-73
2023/09/24 07:09:56;;;;;;;7.30;5.00;;;12.00;89.50;;;;;;5043441;28;20450;-71
2023/09/24 07:12:22;;;;;;;9.07;4.80;;;12.10;89.40;;;;;;5048850;28;20870;-72
2023/09/24 07:14:47;;;;;;;12.10;4.97;;;12.30;84.50;;;;;;5038521;28;20402;-73
2023/09/24 07:17:15;;;;;;;5.47;4.22;;;12.40;79.90;;;;;;5038749;28;20405;-73
2023/09/24 07:19:41;;;;;;;10.48;4.80;;;12.50;79.50;;;;;;5031263;28;20983;-75
2023/09/24 07:22:07;;;;;;;8.32;4.10;;;12.60;78.70;;;;;;5029636;28;20395;-73
2023/09/24 07:24:32;;;;;;;9.40;4.05;;;12.70;78.10;;;;;;5048262;28;20400;-74
2023/09/24 07:27:02;;;;;;;6.27;4.20;;;12.70;75.00;;;;;;5033842;28;20516;-73
2023/09/24 07:29:29;;;;;;;10.40;4.05;;;12.80;75.70;;;;;;5036256;28;20397;-72
2023/09/24 07:31:56;;;;;;;8.55;3.70;;;12.90;72.80;;;;;;5038949;28;20393;-72
2023/09/24 07:34:22;;;;;;;12.07;3.70;;;13.10;69.60;;;;;;5036623;28;20878;-72
2023/09/24 07:36:48;;;;;;;7.45;3.60;;;13.10;70.10;;;;;;5042357;28;20985;-72
2023/09/24 07:39:13;;;;;;;7.40;3.70;;;13.20;69.50;;;;;;5050562;28;20476;-73
2023/09/24 07:41:39;;;;;;;9.13;4.20;;;13.30;67.10;;;;;;5049367;28;20758;-73
2023/09/24 07:44:05;;;;;;;8.07;4.03;;;13.40;69.00;;;;;;5049892;28;20789;-73
2023/09/24 07:46:30;;;;;;;6.70;3.88;;;13.50;66.30;;;;;;5049536;28;20409;-72
2023/09/24 07:48:56;;;;;;;8.80;4.30;;;13.70;64.50;;;;;;5048815;28;20825;-73
2023/09/24 07:51:22;;;;;;;7.05;4.18;;;13.70;62.40;;;;;;5049724;28;20409;-73
2023/09/24 07:53:50;;;;;;;7.20;3.90;;;13.80;62.30;;;;;;5050558;28;20401;-71
2023/09/24 07:56:15;;;;;;;9.23;4.20;;;13.90;61.90;;;;;;5049398;28;20437;-72
2023/09/24 07:58:42;;;;;;;7.25;3.47;;;14.00;61.80;;;;;;5048855;28;20479;-73
2023/09/24 08:01:09;;;;;;;13.18;3.40;;;14.00;62.10;;;;;;5049885;28;20935;-72
2023/09/24 08:03:36;;;;;;;5.07;3.05;;;14.10;59.70;;;;;;5051402;28;20393;-74
2023/09/24 08:06:02;;;;;;;6.50;3.20;;;14.20;57.50;;;;;;5053796;28;20394;-74
2023/09/24 08:08:33;;;;;;;7.30;3.08;;;14.30;57.70;;;;;;5054159;28;20425;-73
2023/09/24 08:10:58;;;;;;;11.32;3.40;;;14.40;56.30;;;;;;5051125;28;20378;-72
2023/09/24 08:13:24;;;;;;;7.95;3.20;;;14.50;56.50;;;;;;5049191;28;20404;-71
2023/09/24 08:15:50;;;;;;;5.50;3.30;;;14.60;54.20;;;;;;5046546;28;20413;-73
2023/09/24 08:18:17;;;;;;;7.95;3.00;;;14.70;52.40;;;;;;5050720;28;20401;-74
2023/09/24 08:20:43;;;;;;;8.32;3.40;;;14.70;51.00;;;;;;5049780;28;20382;-73
2023/09/24 08:23:09;;;;;;;8.88;3.42;;;14.80;50.30;;;;;;5048594;28;20432;-71
2023/09/24 08:25:35;;;;;;;4.47;2.90;;;14.80;51.70;;;;;;5048654;28;20421;-72
2023/09/24 08:28:02;;;;;;;7.05;3.20;;;14.90;50.70;;;;;;5048815;28;20377;-73
2023/09/24 08:30:30;;;;;;;6.13;3.25;;;14.90;49.60;;;;;;5046483;28;20397;-73
2023/09/24 08:32:56;;;;;;;10.63;3.80;;;15.00;48.70;;;;;;5047736;28;20389;-73
2023/09/24 08:35:22;;;;;;;9.60;3.50;;;15.00;49.70;;;;;;5042626;28;20433;-73
2023/09/24 08:37:51;;;;;;;7.57;3.85;;;15.20;47.40;;;;;;5031285;28;20407;-71
2023/09/24 08:40:17;;;;;;;9.70;3.88;;;15.30;46.40;;;;;;5041152;28;20404;-73
2023/09/24 08:42:51;;;;;;;7.73;3.23;;;15.40;46.40;;;;;;5048643;28;20423;-73
2023/09/24 08:45:19;;;;;;;7.80;2.92;;;15.40;45.50;;;;;;5048860;28;20396;-71
2023/09/24 08:47:46;;;;;;;7.38;2.90;;;15.60;43.70;;;;;;5049151;28;20393;-73
2023/09/24 08:50:12;;;;;;;7.35;3.10;;;15.60;43.30;;;;;;5051031;28;20385;-74
2023/09/24 08:52:43;;;;;;;6.20;3.08;;;15.70;43.30;;;;;;5037985;28;20391;-73
2023/09/24 08:55:09;;;;;;;7.75;3.80;;;15.80;41.70;;;;;;5032021;28;20391;-74
2023/09/24 08:57:39;;;;;;;7.70;3.40;;;15.80;42.50;;;;;;5027243;28;20855;-73
2023/09/24 09:00:09;;;;;;;6.47;3.15;;;15.80;42.40;;;;;;5027133;28;20384;-71
2023/09/24 09:02:35;;;;;;;4.90;2.80;;;15.90;41.20;;;;;;5027747;28;20376;-74
2023/09/24 09:05:04;;;;;;;7.60;2.50;;;16.10;40.20;;;;;;5028718;28;20418;-73
2023/09/24 09:07:30;;;;;;;8.07;2.70;;;16.30;39.40;;;;;;5038307;28;20833;-72
2023/09/24 09:10:04;;;;;;;7.68;2.78;;;16.30;38.00;;;;;;5048577;28;20465;-73
2023/09/24 09:12:30;;;;;;;7.20;2.90;;;16.30;37.70;;;;;;5057337;28;20393;-74
2023/09/24 09:14:57;;;;;;;7.30;3.10;;;16.30;38.20;;;;;;5065703;28;20400;-73
2023/09/24 09:17:23;;;;;;;8.10;4.27;;;16.40;38.00;;;;;;5061487;28;20841;-73
2023/09/24 09:19:55;;;;;;;7.47;3.00;;;16.50;38.40;;;;;;5052423;28;20861;-72
2023/09/24 09:22:26;;;;;;;8.52;3.03;;;16.60;37.20;;;;;;5054038;28;20599;-75
2023/09/24 09:25:06;;;;;;;4.85;2.80;;;16.70;36.70;;;;;;5049120;28;20381;-73
2023/09/24 09:27:37;;;;;;;6.70;2.58;;;16.70;36.90;;;;;;5050489;28;20394;-74
2023/09/24 09:30:29;;;;;;;6.00;2.50;;;16.80;36.80;;;;;;5054436;28;20391;-73
2023/09/24 09:32:55;;;;;;;7.65;2.85;;;16.90;36.30;;;;;;5042081;28;20398;-73
2023/09/24 09:35:32;;;;;;;10.35;3.17;;;17.00;36.50;;;;;;5057170;28;20388;-73
2023/09/24 09:38:11;;;;;;;6.70;3.10;;;17.00;35.50;;;;;;5047036;28;20455;-73
2023/09/24 09:40:37;;;;;;;9.10;3.40;;;17.20;35.70;;;;;;5048400;28;20373;-75
2023/09/24 09:43:04;;;;;;;5.60;2.90;;;17.20;35.10;;;;;;5047757;28;20789;-72
2023/09/24 09:45:31;;;;;;;9.05;3.25;;;17.20;35.20;;;;;;5048215;28;20377;-73
2023/09/24 09:48:03;;;;;;;7.30;2.92;;;17.40;34.40;;;;;;5048018;28;20499;-71
2023/09/24 09:50:33;;;;;;;8.48;2.72;;;17.50;34.20;;;;;;5047665;28;20393;-72
2023/09/24 09:53:05;;;;;;;9.33;2.90;;;17.60;32.60;;;;;;5048056;28;20397;-72
2023/09/24 09:55:36;;;;;;;9.50;2.60;;;17.60;31.90;;;;;;5048427;28;20382;-71
2023/09/24 09:58:03;;;;;;;7.20;2.70;;;17.70;31.30;;;;;;5048825;28;20442;-72
2023/09/24 10:00:28;;;;;;;9.02;4.32;;;17.90;30.70;;;;;;5048411;28;20878;-70
2023/09/24 10:02:56;;;;;;;8.23;2.90;;;17.90;30.60;;;;;;5046889;28;20402;-73
2023/09/24 10:05:22;;;;;;;9.50;3.40;;;18.00;31.20;;;;;;5048545;28;20396;-72
2023/09/24 10:07:48;;;;;;;5.20;2.53;;;18.10;31.30;;;;;;5048030;28;20476;-72
2023/09/24 10:10:32;;;;;;;8.00;2.63;;;18.10;30.50;;;;;;5047905;28;20862;-71
2023/09/24 10:12:59;;;;;;;7.82;2.80;;;18.10;30.10;;;;;;5047207;28;20917;-72
2023/09/24 10:15:32;;;;;;;6.87;3.17;;;18.20;29.40;;;;;;5049965;28;21104;-71
2023/09/24 10:18:07;;;;;;;10.23;3.10;;;18.20;29.60;;;;;;5051510;28;20918;-72
2023/09/24 10:20:55;;;;;;;10.65;3.20;;;18.30;29.10;;;;;;5051361;28;20373;-72
2023/09/24 10:23:30;;;;;;;5.93;2.50;;;18.40;28.90;;;;;;5051669;28;20382;-72
2023/09/24 10:26:05;;;;;;;5.05;1.92;;;18.40;27.30;;;;;;5052937;28;20420;-72
2023/09/24 10:28:50;;;;;;;5.07;1.92;;;18.30;27.80;;;;;;5051566;28;20429;-71
2023/09/24 10:31:24;;;;;;;6.43;2.10;;;18.30;26.60;;;;;;5048059;28;20427;-71
2023/09/24 10:33:57;;;;;;;7.25;2.45;;;18.40;27.00;;;;;;5064156;28;20436;-70
2023/09/24 10:36:37;;;;;;;9.30;2.10;;;18.40;27.00;;;;;;5050545;28;20412;-72
2023/09/24 10:39:14;;;;;;;7.68;2.70;;;18.40;26.40;;;;;;5050822;28;20394;-72
2023/09/24 10:42:11;;;;;;;9.27;2.47;;;18.50;26.50;;;;;;5050635;28;20882;-71
2023/09/24 10:44:38;;;;;;;5.93;2.22;;;18.50;27.00;;;;;;5048676;28;20912;-73
2023/09/24 10:47:27;;;;;;;7.53;2.93;;;18.60;26.80;;;;;;5055707;28;20450;-70
2023/09/24 10:50:06;;;;;;;5.78;2.05;;;18.80;27.50;;;;;;5056603;28;20381;-72
2023/09/24 10:52:54;;;;;;;6.30;2.40;;;18.80;26.50;;;;;;5054372;28;20738;-71
2023/09/24 10:55:29;;;;;;;7.30;2.40;;;18.90;27.00;;;;;;5058055;28;20741;-72
2023/09/24 10:57:59;;;;;;;6.68;2.45;;;18.90;25.10;;;;;;5052521;28;20390;-71
2023/09/24 11:00:25;;;;;;;4.60;1.85;;;19.00;25.30;;;;;;5053293;28;20866;-70
2023/09/24 11:02:56;;;;;;;3.97;1.70;;;18.90;24.60;;;;;;5054102;28;20414;-72
2023/09/24 11:05:22;;;;;;;4.13;1.63;;;19.00;22.20;;;;;;5053482;28;20715;-70
2023/09/24 11:07:47;;;;;;;4.55;2.03;;;19.00;22.40;;;;;;5053252;28;20401;-73
2023/09/24 11:10:23;;;;;;;2.70;1.92;;;19.00;23.40;;;;;;5054457;28;20385;-71
2023/09/24 11:12:57;;;;;;;6.55;1.80;;;19.20;23.70;;;;;;5055646;28;20377;-73
2023/09/24 11:15:24;;;;;;;5.05;2.40;;;19.10;23.80;;;;;;5053422;28;20473;-73
2023/09/24 11:17:52;;;;;;;6.70;1.95;;;19.20;24.70;;;;;;5053733;28;21001;-71
2023/09/24 11:20:20;;;;;;;3.20;1.75;;;19.20;23.80;;;;;;5054102;28;20464;-71
2023/09/24 11:22:56;;;;;;;5.50;2.20;;;19.20;23.50;;;;;;5056127;28;20757;-72
2023/09/24 11:25:22;;;;;;;4.10;2.10;;;19.20;23.50;;;;;;5054947;28;20404;-73
2023/09/24 11:27:49;;;;;;;3.73;1.90;;;19.30;22.60;;;;;;5053505;28;20386;-71
2023/09/24 11:30:16;;;;;;;3.20;1.85;;;19.30;22.40;;;;;;5054673;28;20908;-72
2023/09/24 11:32:43;;;;;;;8.05;2.60;;;19.40;22.00;;;;;;5062744;28;20400;-72
2023/09/24 11:35:11;;;;;;;6.97;2.92;;;19.40;22.50;;;;;;5061738;28;20393;-73
2023/09/24 11:37:48;;;;;;;7.50;2.40;;;19.50;22.10;;;;;;5058502;28;20401;-72
2023/09/24 11:40:23;;;;;;;3.50;2.03;;;19.50;22.00;;;;;;5056603;28;20469;-73
2023/09/24 11:42:57;;;;;;;4.32;1.83;;;19.50;22.20;;;;;;5060346;28;20810;-74
2023/09/24 11:45:48;;;;;;;7.68;2.50;;;19.40;21.50;;;;;;5059402;28;20382;-72
2023/09/24 11:48:15;;;;;;;4.43;2.17;;;19.50;21.80;;;;;;5055570;28;20460;-71
2023/09/24 11:50:47;;;;;;;5.47;1.70;;;19.50;22.40;;;;;;5054097;28;20809;-72
2023/09/24 11:53:13;;;;;;;7.88;2.40;;;19.50;21.60;;;;;;5056527;28;20377;-72
2023/09/24 11:55:40;;;;;;;4.45;1.70;;;19.60;22.30;;;;;;5058742;28;20394;-73
2023/09/24 11:58:07;;;;;;;4.88;2.00;;;19.60;22.10;;;;;;5056403;28;20479;-71
2023/09/24 12:00:36;;;;;;;5.10;2.00;;;19.60;22.60;;;;;;5061807;28;20400;-74
2023/09/24 12:03:04;;;;;;;3.67;1.70;;;19.70;20.70;;;;;;5060932;28;20449;-73
2023/09/24 12:05:33;;;;;;;5.60;1.80;;;19.70;19.80;;;;;;5061003;28;20389;-73
2023/09/24 12:08:00;;;;;;;4.25;1.90;;;19.70;19.00;;;;;;5062820;28;20385;-73
2023/09/24 12:10:26;;;;;;;5.10;1.70;;;19.80;19.50;;;;;;5059930;28;20381;-72
2023/09/24 12:12:51;;;;;;;6.45;1.90;;;19.80;20.00;;;;;;5055645;28;20413;-71
2023/09/24 12:15:18;;;;;;;5.13;1.90;;;19.90;19.40;;;;;;5060953;28;20414;-73
2023/09/24 12:17:47;;;;;;;6.68;2.00;;;19.90;19.40;;;;;;5054349;28;20405;-71
2023/09/24 12:20:14;;;;;;;4.10;1.70;;;19.90;19.20;;;;;;5060606;28;20412;-73
2023/09/24 12:22:41;;;;;;;5.95;2.30;;;20.00;19.50;;;;;;5059466;28;20431;-72
2023/09/24 12:25:09;;;;;;;8.50;2.38;;;20.10;19.40;;;;;;5055048;28;20461;-72
2023/09/24 12:27:35;;;;;;;4.60;2.00;;;20.20;19.00;;;;;;5055915;28;20395;-74
2023/09/24 12:30:00;;;;;;;5.80;2.17;;;20.30;19.00;;;;;;5057448;28;20431;-72
2023/09/24 12:32:26;;;;;;;6.85;2.40;;;20.20;18.90;;;;;;5055117;28;20393;-71
2023/09/24 12:34:52;;;;;;;5.07;1.90;;;20.30;19.40;;;;;;5063662;28;20378;-73
2023/09/24 12:37:17;;;;;;;6.70;1.80;;;20.30;18.20;;;;;;5062484;28;21114;-73
2023/09/24 12:39:43;;;;;;;4.65;1.80;;;20.40;18.90;;;;;;5064697;28;20393;-73
2023/09/24 12:42:08;;;;;;;6.30;1.90;;;20.40;18.40;;;;;;5056838;28;20400;-72